This is the latest recevied weather packets stored in our database for station/object DK7LH-6. If no packets are shown the sender has not sent any weather packets the latest 10 day(s).
| Time | Temp. | Humidity | Pressure | Rain* | Wind** | Luminosity | Snow |
|---|---|---|---|---|---|---|---|
| 1777816877 | 25.56° C | 43% | 1008 hPa | 0 mm | - | 517 W/m² | - |
| 1777815947 | 25° C | 47% | 1008.5 hPa | 0 mm | - | 522 W/m² | - |
| 1777815078 | 25° C | 47% | 1008.7 hPa | 0 mm | - | 570 W/m² | - |
| 1777814148 | 25° C | 48% | 1008.7 hPa | 0 mm | - | 560 W/m² | - |
| 1777813218 | 24.44° C | 48% | 1008.6 hPa | 0 mm | - | 449 W/m² | - |
| 1777812350 | 23.89° C | 54% | 1008.7 hPa | 0 mm | - | 497 W/m² | - |
| 1777811419 | 23.89° C | 55% | 1008.8 hPa | 0 mm | - | 367 W/m² | - |
| 1777810552 | 23.89° C | 57% | 1008.8 hPa | 0 mm | - | 382 W/m² | - |
| 1777809622 | 23.33° C | 57% | 1008.9 hPa | 0 mm | - | 415 W/m² | - |
| 1777808753 | 23.33° C | 58% | 1009 hPa | 0 mm | - | 358 W/m² | - |
| 1777807824 | 23.89° C | 56% | 1009.2 hPa | 0 mm | - | 375 W/m² | - |
| 1777806958 | 23.89° C | 58% | 1009.3 hPa | 0 mm | - | 628 W/m² | - |
| 1777806027 | 23.89° C | 58% | 1009.5 hPa | 0 mm | - | 699 W/m² | - |
| 1777805158 | 22.78° C | 61% | 1009.4 hPa | 0 mm | - | 747 W/m² | - |
| 1777804228 | 22.22° C | 63% | 1009.6 hPa | 0 mm | - | 592 W/m² | - |
| 1777803329 | 22.22° C | 61% | 1009.8 hPa | 0 mm | - | 710 W/m² | - |
| 1777802461 | 22.78° C | 62% | 1009.8 hPa | 0 mm | - | 685 W/m² | - |
| 1777801531 | 21.67° C | 65% | 1010 hPa | 0 mm | - | 563 W/m² | - |
| 1777800663 | 21.11° C | 70% | 1010.1 hPa | 0 mm | - | 601 W/m² | - |
| 1777799733 | 20.56° C | 73% | 1010.3 hPa | 0 mm | - | 431 W/m² | - |
| 1777798866 | 19.44° C | 77% | 1010.5 hPa | 0 mm | - | 392 W/m² | - |
| 1777797935 | 18.89° C | 83% | 1010.6 hPa | 0 mm | - | 310 W/m² | - |
| 1777797067 | 17.78° C | 88% | 1010.5 hPa | 0 mm | - | 136 W/m² | - |
| 1777796137 | 17.78° C | 87% | 1010.8 hPa | 0.25 mm | - | 129 W/m² | - |
| 1777795269 | 17.22° C | 91% | 1010.7 hPa | 0.25 mm | - | 309 W/m² | - |
* Rain latest hour (hover to see other rain measurements)
** Current wind speed in m/s (hover to see current wind gust speed)